Time;durP1;ratioP1;P1;durP2;ratioP2;P2;SDS_P1;SDS_P2;PMS_P1;PMS_P2;Temp;Humidity;BMP_temperature;BMP_pressure;BME280_temperature;BME280_humidity;BME280_pressure;Samples;Min_cycle;Max_cycle;Signal;HPM_P1;HPM_P2
2024/02/07 00:01:11;;;;;;;;;12.00;10.00;;;;;12.24;77.53;101144.84;5033711;28;45880;-49
2024/02/07 00:03:36;;;;;;;;;12.67;12.00;;;;;12.26;77.46;101135.91;5051808;28;45296;-47
2024/02/07 00:06:02;;;;;;;;;10.67;10.67;;;;;12.26;77.53;101128.75;5044834;28;74616;-45
2024/02/07 00:08:27;;;;;;;;;15.00;11.00;;;;;12.30;77.40;101137.47;5041865;28;45500;-46
2024/02/07 00:10:52;;;;;;;;;14.00;13.67;;;;;12.31;77.45;101125.84;5030848;28;68702;-49
2024/02/07 00:13:18;;;;;;;;;10.33;9.00;;;;;12.31;77.46;101120.50;5048659;28;45437;-47
2024/02/07 00:15:44;;;;;;;;;10.67;10.67;;;;;12.33;77.09;101114.16;5051189;28;46160;-46
2024/02/07 00:18:09;;;;;;;;;12.33;10.00;;;;;12.32;77.31;101107.09;5047527;28;45320;-49
2024/02/07 00:20:34;;;;;;;;;16.67;11.00;;;;;12.33;77.29;101103.50;5052697;28;68186;-45
2024/02/07 00:23:01;;;;;;;;;11.00;8.33;;;;;12.33;77.46;101099.94;5046830;28;70540;-46
2024/02/07 00:25:26;;;;;;;;;12.33;10.00;;;;;12.33;77.55;101095.50;5042501;28;45931;-47
2024/02/07 00:27:52;;;;;;;;;14.00;11.67;;;;;12.36;77.38;101099.81;5043893;28;71951;-48
2024/02/07 00:30:17;;;;;;;;;12.00;9.67;;;;;12.36;77.11;101089.97;5046389;28;55013;-45
2024/02/07 00:32:42;;;;;;;;;13.33;11.33;;;;;12.36;77.38;101078.47;5039946;28;68794;-47
2024/02/07 00:35:08;;;;;;;;;11.00;10.00;;;;;12.37;77.20;101073.03;5043453;28;46092;-46
2024/02/07 00:37:33;;;;;;;;;11.00;10.00;;;;;12.37;77.40;101077.50;5044835;28;73150;-46
2024/02/07 00:39:58;;;;;;;;;13.33;11.00;;;;;12.35;77.45;101077.59;5040760;28;67877;-46
2024/02/07 00:42:23;;;;;;;;;10.67;10.00;;;;;12.37;77.49;101080.16;5044975;28;66998;-48
2024/02/07 00:44:49;;;;;;;;;12.00;8.67;;;;;12.37;77.39;101088.16;5041037;28;64781;-45
2024/02/07 00:47:14;;;;;;;;;12.67;10.00;;;;;12.35;77.67;101068.72;5044431;28;69402;-48
2024/02/07 00:49:39;;;;;;;;;10.33;9.00;;;;;12.35;77.85;101072.25;5043139;28;45554;-44
2024/02/07 00:52:05;;;;;;;;;14.00;11.33;;;;;12.34;77.42;101078.50;5049669;28;69359;-48
2024/02/07 00:54:30;;;;;;;;;10.00;10.00;;;;;12.31;77.43;101057.34;5050600;28;46541;-45
2024/02/07 00:56:56;;;;;;;;;11.33;11.33;;;;;12.32;77.45;101050.19;5051118;28;45548;-46
2024/02/07 00:59:21;;;;;;;;;17.00;12.33;;;;;12.30;77.60;101046.78;5044657;28;45838;-47
2024/02/07 01:01:47;;;;;;;;;9.00;8.67;;;;;12.30;77.81;101044.94;5028668;28;45500;-46
2024/02/07 01:04:12;;;;;;;;;11.33;9.33;;;;;12.29;77.87;101037.03;5039327;28;46124;-46
2024/02/07 01:06:41;;;;;;;;;14.33;12.00;;;;;12.28;77.59;101032.63;5054371;28;73311;-45
2024/02/07 01:09:06;;;;;;;;;10.00;8.00;;;;;12.27;77.81;101044.25;5041942;28;45400;-46
2024/02/07 01:11:32;;;;;;;;;14.00;12.00;;;;;12.24;77.99;101035.50;5054308;28;45392;-47
2024/02/07 01:13:57;;;;;;;;;11.67;9.00;;;;;12.24;77.90;101026.59;5051128;28;47819;-46
2024/02/07 01:16:22;;;;;;;;;11.33;7.00;;;;;12.26;77.95;101030.06;5052997;28;45455;-46
2024/02/07 01:18:50;;;;;;;;;11.67;8.67;;;;;12.23;77.92;101023.09;5050615;28;62472;-46
2024/02/07 01:21:16;;;;;;;;;11.67;10.33;;;;;12.19;77.98;101013.53;5044472;28;45433;-45
2024/02/07 01:23:45;;;;;;;;;12.67;9.67;;;;;12.21;78.40;101014.28;5050600;28;45387;-46
2024/02/07 01:26:14;;;;;;;;;10.33;9.33;;;;;12.21;78.31;101010.78;5037591;28;45519;-46
2024/02/07 01:28:40;;;;;;;;;13.00;10.33;;;;;12.19;78.11;100997.53;5043458;28;45493;-45
2024/02/07 01:31:06;;;;;;;;;15.33;10.00;;;;;12.18;78.45;100992.28;5049495;28;45620;-48
2024/02/07 01:33:31;;;;;;;;;13.67;9.33;;;;;12.17;78.56;100994.06;5046896;28;45708;-45
2024/02/07 01:35:56;;;;;;;;;10.00;10.00;;;;;12.17;78.52;100990.56;5051863;28;45637;-48
2024/02/07 01:38:22;;;;;;;;;14.00;10.33;;;;;12.16;78.76;100979.03;5043271;28;45345;-45
2024/02/07 01:40:48;;;;;;;;;13.33;11.33;;;;;12.17;78.62;100980.75;5043887;28;45329;-46
2024/02/07 01:43:14;;;;;;;;;11.00;10.00;;;;;12.19;78.73;100973.53;5042588;28;47127;-48
2024/02/07 01:45:40;;;;;;;;;13.33;11.67;;;;;12.20;78.62;100979.72;5041884;28;45879;-47
2024/02/07 01:48:07;;;;;;;;;12.00;9.33;;;;;12.22;78.67;100984.03;5043618;28;45368;-47
2024/02/07 01:50:35;;;;;;;;;12.33;10.33;;;;;12.22;78.67;100983.19;5052204;28;45593;-46
2024/02/07 01:53:03;;;;;;;;;15.33;11.67;;;;;12.23;78.82;100990.25;5026873;28;45471;-47
2024/02/07 01:55:28;;;;;;;;;10.00;10.00;;;;;12.24;78.67;100987.47;5040057;28;46722;-44
2024/02/07 01:57:55;;;;;;;;;14.00;9.00;;;;;12.25;78.71;100977.66;5054732;28;45412;-47
2024/02/07 02:00:21;;;;;;;;;12.67;12.33;;;;;12.28;78.56;100980.19;5049293;28;45656;-44
2024/02/07 02:02:48;;;;;;;;;9.33;8.33;;;;;12.31;78.41;100974.66;5046032;28;46957;-46
2024/02/07 02:05:14;;;;;;;;;11.33;10.00;;;;;12.32;78.40;100981.72;5048085;28;45498;-44
2024/02/07 02:07:40;;;;;;;;;12.00;10.67;;;;;12.35;78.36;100970.03;5051056;28;45400;-45
2024/02/07 02:10:06;;;;;;;;;13.00;10.33;;;;;12.37;78.40;100962.78;5046086;28;45506;-45
2024/02/07 02:12:32;;;;;;;;;9.00;9.00;;;;;12.40;78.25;100971.50;5034283;28;45601;-45
2024/02/07 02:14:57;;;;;;;;;9.33;8.33;;;;;12.39;77.96;100967.09;5046712;28;45513;-45
2024/02/07 02:17:23;;;;;;;;;8.33;8.33;;;;;12.40;78.03;100955.50;5051751;28;49746;-45
2024/02/07 02:19:50;;;;;;;;;11.33;9.00;;;;;12.41;78.10;100957.22;5048509;28;69269;-44
2024/02/07 02:22:37;;;;;;;;;12.00;9.67;;;;;12.43;77.86;100956.28;5043427;28;45742;-45
2024/02/07 02:25:24;;;;;;;;;9.33;8.00;;;;;12.44;78.06;100953.53;5054389;28;45512;-47
2024/02/07 02:28:18;;;;;;;;;11.67;9.67;;;;;12.47;78.04;100955.16;5043901;28;45686;-48
2024/02/07 02:30:54;;;;;;;;;8.00;8.00;;;;;12.50;78.02;100947.84;5046086;28;45515;-47
2024/02/07 02:33:21;;;;;;;;;3.67;3.67;;;;;12.51;77.71;100941.53;5033197;28;45442;-46
2024/02/07 02:35:47;;;;;;;;;11.00;11.00;;;;;12.53;77.69;100928.16;5047240;28;45477;-46
2024/02/07 02:38:18;;;;;;;;;10.67;9.33;;;;;12.52;77.35;100935.28;5036534;28;45319;-45
2024/02/07 02:40:44;;;;;;;;;12.00;8.00;;;;;12.52;77.39;100929.09;5038890;28;45488;-45
2024/02/07 02:43:12;;;;;;;;;13.67;10.67;;;;;12.53;77.33;100926.31;5053999;28;45506;-45
2024/02/07 02:45:38;;;;;;;;;10.67;9.33;;;;;12.52;77.19;100926.41;5052026;28;45513;-46
2024/02/07 02:48:04;;;;;;;;;9.00;8.00;;;;;12.54;77.28;100925.38;5045280;28;55919;-46
2024/02/07 02:50:31;;;;;;;;;13.33;11.00;;;;;12.55;77.01;100928.91;5044109;28;45706;-47
2024/02/07 02:52:58;;;;;;;;;14.33;11.00;;;;;12.55;77.34;100920.91;5054836;28;47183;-47
2024/02/07 02:55:24;;;;;;;;;16.33;12.33;;;;;12.53;77.43;100912.13;5049442;28;45414;-48
2024/02/07 02:57:50;;;;;;;;;11.00;9.00;;;;;12.55;77.18;100916.44;5044843;28;45374;-45
2024/02/07 03:00:20;;;;;;;;;10.00;9.00;;;;;12.55;77.31;100916.44;5049738;28;45559;-45
2024/02/07 03:02:46;;;;;;;;;12.00;9.67;;;;;12.55;77.17;100905.75;5044895;28;47119;-44
2024/02/07 03:05:37;;;;;;;;;9.33;8.00;;;;;12.56;77.12;100909.28;5049177;28;46629;-46
2024/02/07 03:08:16;;;;;;;;;11.00;10.00;;;;;12.56;76.93;100888.78;5055077;28;45890;-47
2024/02/07 03:10:42;;;;;;;;;12.00;8.33;;;;;12.57;76.91;100874.50;5053956;28;45340;-47
2024/02/07 03:13:08;;;;;;;;;10.00;10.00;;;;;12.54;77.04;100885.38;5039477;28;46231;-46
2024/02/07 03:15:34;;;;;;;;;10.00;8.67;;;;;12.53;77.17;100870.28;5052076;28;45573;-50
2024/02/07 03:18:00;;;;;;;;;18.67;11.00;;;;;12.52;77.24;100884.56;5054422;28;46635;-45
2024/02/07 03:20:25;;;;;;;;;11.33;10.00;;;;;12.51;77.03;100874.84;5052959;28;45347;-46
2024/02/07 03:22:51;;;;;;;;;12.00;11.00;;;;;12.50;77.23;100869.59;5050509;28;55864;-46
2024/02/07 03:25:16;;;;;;;;;13.00;11.00;;;;;12.51;77.43;100874.00;5054240;28;45849;-48
2024/02/07 03:27:46;;;;;;;;;14.00;9.67;;;;;12.51;77.48;100861.50;5057594;28;45589;-46
2024/02/07 03:30:12;;;;;;;;;9.67;9.33;;;;;12.52;77.44;100862.38;5038918;28;45420;-49
2024/02/07 03:32:38;;;;;;;;;9.67;9.33;;;;;12.51;77.55;100839.31;5041903;28;46250;-50
2024/02/07 03:35:04;;;;;;;;;16.67;13.33;;;;;12.51;77.62;100841.97;5049718;28;45629;-49
2024/02/07 03:37:30;;;;;;;;;12.67;12.00;;;;;12.51;77.83;100833.97;5055448;28;45474;-45
2024/02/07 03:39:55;;;;;;;;;13.33;9.00;;;;;12.51;77.57;100825.97;5051752;28;70362;-49
2024/02/07 03:42:21;;;;;;;;;11.00;10.00;;;;;12.50;77.63;100822.47;5048866;28;45451;-49
2024/02/07 03:44:56;;;;;;;;;11.00;10.00;;;;;12.50;77.53;100817.13;5035816;28;45489;-48
2024/02/07 03:47:22;;;;;;;;;15.00;11.67;;;;;12.48;77.76;100824.34;5054130;28;45570;-49
2024/02/07 03:49:47;;;;;;;;;15.00;13.00;;;;;12.46;78.17;100820.03;5052013;28;45450;-46
2024/02/07 03:52:12;;;;;;;;;10.00;10.00;;;;;12.48;77.87;100818.16;5042797;28;75287;-45
2024/02/07 03:54:50;;;;;;;;;11.67;9.67;;;;;12.45;78.16;100808.53;5046895;28;61557;-47
2024/02/07 03:57:20;;;;;;;;;15.00;12.00;;;;;12.43;78.32;100807.75;5046445;28;45420;-46
2024/02/07 03:59:46;;;;;;;;;7.00;7.00;;;;;12.42;78.15;100806.00;5045630;28;45625;-46
2024/02/07 04:02:21;;;;;;;;;13.00;10.33;;;;;12.40;78.55;100800.78;5041342;28;46175;-44
2024/02/07 04:04:47;;;;;;;;;18.67;12.00;;;;;12.44;78.47;100795.25;5050293;28;45475;-45
2024/02/07 04:07:12;;;;;;;;;9.67;9.67;;;;;12.44;78.69;100796.13;5053010;28;45505;-47
2024/02/07 04:09:38;;;;;;;;;15.67;11.67;;;;;12.45;78.60;100788.97;5038646;28;64793;-46
2024/02/07 05:17:03;;;;;;;;;13.00;10.67;;;;;12.18;86.13;100730.97;5050942;28;45799;-45
2024/02/07 05:19:29;;;;;;;;;13.00;8.67;;;;;12.18;85.81;100720.31;5038294;28;67518;-45
2024/02/07 05:21:54;;;;;;;;;13.33;10.67;;;;;12.18;85.89;100714.97;5032803;28;67035;-47
2024/02/07 05:24:20;;;;;;;;;10.00;10.00;;;;;12.17;86.29;100723.91;5052171;28;45511;-45
2024/02/07 05:26:45;;;;;;;;;11.33;11.00;;;;;12.17;85.88;100729.25;5047468;28;74560;-46
2024/02/07 05:29:15;;;;;;;;;13.67;12.00;;;;;12.16;86.42;100739.06;5044502;28;73191;-47
2024/02/07 05:31:41;;;;;;;;;10.67;10.67;;;;;12.16;86.40;100736.41;5042607;28;45368;-45
2024/02/07 05:34:06;;;;;;;;;14.00;11.67;;;;;12.19;86.47;100733.53;5042407;28;45547;-45
2024/02/07 05:36:31;;;;;;;;;12.00;12.00;;;;;12.21;86.37;100728.97;5041048;28;45775;-47
2024/02/07 05:38:57;;;;;;;;;11.00;10.67;;;;;12.22;86.14;100729.84;5049702;28;45556;-47
2024/02/07 05:41:24;;;;;;;;;9.33;9.33;;;;;12.22;86.31;100722.69;5048611;28;54728;-47
2024/02/07 05:43:51;;;;;;;;;11.67;10.67;;;;;12.24;86.42;100726.13;5052943;28;45405;-46
2024/02/07 05:46:17;;;;;;;;;14.33;11.67;;;;;12.26;86.43;100720.72;5041666;28;46144;-45
2024/02/07 05:48:43;;;;;;;;;12.00;12.00;;;;;12.24;86.17;100726.13;5040389;28;45409;-47
2024/02/07 05:51:21;;;;;;;;;14.67;11.00;;;;;12.22;87.02;100721.84;5039759;28;45388;-45
2024/02/07 05:53:47;;;;;;;;;14.00;12.33;;;;;12.20;86.60;100718.38;5041238;28;45772;-44
2024/02/07 05:56:12;;;;;;;;;16.67;13.33;;;;;12.18;87.01;100715.81;5051328;28;46215;-46
2024/02/07 05:58:41;;;;;;;;;14.33;12.67;;;;;12.16;87.32;100701.72;5032493;28;51223;-45
2024/02/07 06:01:07;;;;;;;;;12.33;10.00;;;;;12.16;87.00;100692.84;5048342;28;45487;-46
2024/02/07 06:03:32;;;;;;;;;11.00;11.00;;;;;12.13;87.29;100709.03;5049718;28;45629;-48
2024/02/07 06:05:58;;;;;;;;;13.00;11.33;;;;;12.13;87.06;100696.56;5047714;28;46773;-47
2024/02/07 06:08:24;;;;;;;;;11.00;8.67;;;;;12.12;87.34;100699.31;5046487;28;45676;-46
2024/02/07 06:10:49;;;;;;;;;20.33;14.00;;;;;12.09;87.57;100697.69;5045531;28;45319;-47
2024/02/07 06:13:15;;;;;;;;;9.00;9.00;;;;;12.07;87.48;100684.44;5036643;28;45320;-45
2024/02/07 06:15:40;;;;;;;;;15.33;11.00;;;;;12.04;87.97;100684.63;5036603;28;46012;-46
2024/02/07 06:18:06;;;;;;;;;14.67;11.67;;;;;12.04;87.79;100681.09;5048680;28;56002;-49
2024/02/07 06:20:31;;;;;;;;;15.67;10.00;;;;;12.01;88.34;100681.28;5041029;28;45452;-45
2024/02/07 06:22:56;;;;;;;;;13.00;12.00;;;;;12.00;88.22;100677.75;5028533;28;69433;-46
2024/02/07 06:25:22;;;;;;;;;13.33;12.00;;;;;11.99;88.20;100662.69;5045069;28;46442;-47
2024/02/07 06:27:47;;;;;;;;;14.33;12.00;;;;;11.99;88.95;100648.53;5042383;28;58813;-47
2024/02/07 06:30:13;;;;;;;;;8.33;8.33;;;;;11.99;88.60;100649.38;5046189;28;62833;-47
2024/02/07 06:32:38;;;;;;;;;12.33;10.33;;;;;11.99;88.72;100641.38;5050175;28;45352;-46
2024/02/07 06:35:04;;;;;;;;;13.00;12.00;;;;;11.98;88.83;100650.34;5049039;28;64066;-46
2024/02/07 06:37:29;;;;;;;;;11.33;10.33;;;;;11.98;88.83;100633.47;5039662;28;45523;-47
2024/02/07 06:39:54;;;;;;;;;9.33;9.33;;;;;11.98;88.86;100645.00;5046466;28;69314;-47
2024/02/07 06:42:19;;;;;;;;;14.67;10.00;;;;;11.98;89.64;100636.13;5039189;28;64929;-48
2024/02/07 06:44:45;;;;;;;;;14.00;13.33;;;;;11.98;89.37;100638.81;5032914;28;75570;-46
2024/02/07 06:47:11;;;;;;;;;14.67;13.00;;;;;11.99;89.99;100644.03;5058571;28;73322;-46
2024/02/07 06:49:36;;;;;;;;;11.00;10.00;;;;;12.02;89.61;100643.00;5040972;28;45313;-48
2024/02/07 06:52:02;;;;;;;;;11.00;11.00;;;;;12.04;89.17;100631.28;5039497;28;60114;-47
2024/02/07 06:54:28;;;;;;;;;13.33;11.00;;;;;12.05;89.30;100637.50;5039850;28;47093;-46
2024/02/07 06:56:53;;;;;;;;;15.67;13.67;;;;;12.08;89.06;100637.31;5050643;28;45458;-46
2024/02/07 06:59:19;;;;;;;;;15.33;11.33;;;;;12.08;88.98;100639.97;5035477;28;69924;-50
2024/02/07 07:01:44;;;;;;;;;12.33;10.33;;;;;12.11;89.00;100641.59;5052638;28;45581;-46
2024/02/07 07:04:10;;;;;;;;;11.00;9.67;;;;;12.12;88.67;100635.34;5046407;28;45723;-46
2024/02/07 07:06:36;;;;;;;;;10.33;9.67;;;;;12.13;88.58;100634.38;5051220;28;45398;-46
2024/02/07 07:09:01;;;;;;;;;11.00;10.33;;;;;12.14;88.42;100622.78;5040391;28;45807;-47
2024/02/07 07:11:27;;;;;;;;;14.00;12.00;;;;;12.15;88.20;100616.47;5041605;28;68330;-47
2024/02/07 07:13:54;;;;;;;;;9.67;9.67;;;;;12.19;87.90;100612.66;5051001;28;46104;-48
2024/02/07 07:16:20;;;;;;;;;11.33;10.00;;;;;12.16;88.00;100610.19;5059064;28;45410;-48
2024/02/07 07:18:45;;;;;;;;;10.00;10.00;;;;;12.16;87.91;100603.06;5048281;28;45322;-47
2024/02/07 07:21:10;;;;;;;;;12.33;12.33;;;;;12.18;87.90;100605.66;5047127;28;59795;-46
2024/02/07 07:23:37;;;;;;;;;12.00;10.00;;;;;12.20;87.73;100604.59;5046990;28;75754;-49
2024/02/07 07:26:02;;;;;;;;;14.33;11.33;;;;;12.22;87.53;100602.69;5038010;28;45357;-47
2024/02/07 07:28:28;;;;;;;;;13.00;10.33;;;;;12.23;87.44;100606.22;5041070;28;45238;-47
2024/02/07 07:30:55;;;;;;;;;12.67;11.33;;;;;12.23;87.11;100615.06;5019804;28;45448;-45
2024/02/07 07:33:21;;;;;;;;;11.33;11.00;;;;;12.23;87.38;100615.06;5032716;28;45566;-45
2024/02/07 07:35:46;;;;;;;;;12.00;11.00;;;;;12.27;87.01;100615.75;5040497;28;45652;-44
2024/02/07 07:38:12;;;;;;;;;19.00;14.00;;;;;12.28;86.79;100625.47;5047622;28;45309;-47
2024/02/07 07:40:39;;;;;;;;;12.67;9.33;;;;;12.31;86.90;100627.94;5038824;28;69193;-44
2024/02/07 07:43:04;;;;;;;;;10.33;10.33;;;;;12.33;86.63;100627.84;5042651;28;46014;-45
2024/02/07 07:45:29;;;;;;;;;12.00;11.00;;;;;12.35;86.32;100616.16;5045868;28;45417;-46
2024/02/07 07:47:56;;;;;;;;;13.33;11.00;;;;;12.36;86.42;100617.88;5044852;28;66653;-44
2024/02/07 07:50:21;;;;;;;;;14.67;14.00;;;;;12.36;86.73;100625.03;5041207;28;65417;-46
2024/02/07 07:52:46;;;;;;;;;15.33;12.00;;;;;12.38;86.27;100626.66;5040994;28;66903;-45
2024/02/07 07:55:12;;;;;;;;;14.00;12.00;;;;;12.38;86.23;100623.97;5037744;28;71723;-47
2024/02/07 07:57:37;;;;;;;;;9.00;9.00;;;;;12.39;86.08;100638.16;5033729;28;45601;-46
2024/02/07 08:00:03;;;;;;;;;10.67;10.67;;;;;12.38;86.63;100634.66;5046383;28;55401;-49
2024/02/07 08:02:29;;;;;;;;;14.33;12.00;;;;;12.40;86.32;100631.88;5047778;28;45889;-46
2024/02/07 08:04:55;;;;;;;;;13.00;10.00;;;;;12.42;86.18;100637.97;5051099;28;45522;-44
2024/02/07 08:07:20;;;;;;;;;17.67;10.33;;;;;12.44;86.05;100628.06;5050398;28;45589;-46
2024/02/07 08:09:47;;;;;;;;;13.67;12.67;;;;;12.48;85.88;100626.09;5045903;28;70365;-44
2024/02/07 08:12:13;;;;;;;;;15.33;10.00;;;;;12.45;100.00;100640.47;5051058;28;46319;-46
2024/02/07 08:14:39;;;;;;;;;12.67;12.00;;;;;12.54;94.52;100620.34;5041922;28;45431;-46
2024/02/07 08:17:04;;;;;;;;;14.67;12.67;;;;;12.58;89.88;100622.75;5040063;28;45509;-47
2024/02/07 08:19:29;;;;;;;;;13.67;13.33;;;;;12.63;88.48;100625.13;5040050;28;56137;-48
2024/02/07 08:21:55;;;;;;;;;18.67;14.33;;;;;12.65;87.97;100617.91;5039284;28;74129;-45
2024/02/07 08:24:20;;;;;;;;;12.33;11.33;;;;;12.67;88.02;100616.00;5050453;28;72171;-48
2024/02/07 08:26:45;;;;;;;;;12.67;11.00;;;;;12.70;87.37;100613.13;5046293;28;66802;-47
2024/02/07 08:29:11;;;;;;;;;15.67;11.33;;;;;12.70;87.32;100610.47;5032394;28;64651;-45
2024/02/07 08:31:38;;;;;;;;;16.33;13.67;;;;;12.73;86.60;100609.41;5042244;28;65843;-45
2024/02/07 08:34:04;;;;;;;;;10.67;10.67;;;;;12.77;86.21;100604.75;5044128;28;45441;-44
2024/02/07 08:36:29;;;;;;;;;14.33;12.00;;;;;12.82;85.71;100618.66;5041949;28;61986;-46
2024/02/07 08:38:54;;;;;;;;;14.67;13.00;;;;;12.85;85.62;100613.13;5046320;28;61542;-47
2024/02/07 08:41:20;;;;;;;;;14.00;14.00;;;;;12.85;85.03;100616.69;5045985;28;45478;-48
2024/02/07 08:43:46;;;;;;;;;19.67;15.00;;;;;12.85;84.88;100613.13;5047317;28;45478;-48
2024/02/07 08:46:11;;;;;;;;;14.00;12.33;;;;;12.83;84.77;100609.72;5046883;28;45460;-43
2024/02/07 08:48:37;;;;;;;;;12.67;12.00;;;;;12.81;84.49;100611.63;5034545;28;45398;-46
2024/02/07 08:51:03;;;;;;;;;12.00;12.00;;;;;12.79;84.60;100605.50;5044263;28;51383;-46
2024/02/07 08:53:28;;;;;;;;;13.00;12.00;;;;;12.80;84.43;100604.56;5056560;28;45429;-44
2024/02/07 08:55:55;;;;;;;;;17.67;14.67;;;;;12.80;84.10;100592.09;5050276;28;45408;-46
2024/02/07 08:58:21;;;;;;;;;16.00;13.67;;;;;12.78;83.93;100617.16;5036112;28;45555;-47
2024/02/07 09:00:46;;;;;;;;;16.33;13.00;;;;;12.84;84.52;100598.94;5044012;28;45608;-45
2024/02/07 09:03:12;;;;;;;;;15.33;13.33;;;;;12.87;84.29;100598.72;5051541;28;45466;-45
2024/02/07 09:05:37;;;;;;;;;10.33;9.33;;;;;12.91;84.23;100599.41;5050355;28;45605;-44
2024/02/07 09:08:03;;;;;;;;;13.00;12.00;;;;;12.96;83.75;100599.97;5050693;28;45734;-44
2024/02/07 09:10:30;;;;;;;;;14.00;12.33;;;;;12.98;83.72;100595.38;5049277;28;45763;-49
2024/02/07 09:12:56;;;;;;;;;18.33;14.33;;;;;13.02;83.24;100594.25;5052638;28;45571;-45
2024/02/07 09:15:21;;;;;;;;;17.33;13.67;;;;;13.01;83.23;100605.00;5026122;28;45902;-45
2024/02/07 09:17:46;;;;;;;;;14.33;12.33;;;;;13.02;83.24;100593.38;5033131;28;45536;-45
2024/02/07 09:20:12;;;;;;;;;15.33;11.67;;;;;13.01;83.51;100597.00;5032989;28;47562;-44
2024/02/07 09:22:40;;;;;;;;;13.67;13.67;;;;;12.96;83.75;100594.63;5042367;28;45738;-45
2024/02/07 09:25:06;;;;;;;;;19.33;14.00;;;;;12.96;84.14;100589.28;5034848;28;45576;-45
2024/02/07 09:27:32;;;;;;;;;17.33;16.33;;;;;12.98;83.92;100579.34;5043361;28;45691;-44
2024/02/07 09:29:57;;;;;;;;;19.67;15.33;;;;;13.01;84.10;100580.97;5006142;28;47995;-44
2024/02/07 09:32:23;;;;;;;;;14.00;13.67;;;;;13.02;83.26;100578.22;5048990;28;45387;-45
2024/02/07 09:34:48;;;;;;;;;17.33;15.00;;;;;13.01;83.90;100580.97;5042088;28;45450;-44
2024/02/07 09:37:13;;;;;;;;;18.67;14.00;;;;;13.02;83.55;100582.69;5048833;28;60231;-45
2024/02/07 09:39:39;;;;;;;;;15.00;12.67;;;;;12.97;84.04;100576.78;5049203;28;45385;-45
2024/02/07 09:42:07;;;;;;;;;12.00;12.00;;;;;12.97;84.06;100580.34;5041688;28;73236;-44
2024/02/07 09:44:33;;;;;;;;;15.33;15.33;;;;;12.87;84.98;100572.03;5030814;28;45452;-44
2024/02/07 09:47:02;;;;;;;;;17.67;15.00;;;;;12.77;86.12;100572.72;5032076;28;45761;-45
2024/02/07 09:49:28;;;;;;;;;17.33;16.00;;;;;12.69;86.84;100567.88;5050685;28;45491;-51
2024/02/07 09:51:54;;;;;;;;;21.33;17.67;;;;;12.66;86.54;100576.91;5025423;28;45578;-45
2024/02/07 09:54:19;;;;;;;;;19.67;16.67;;;;;12.62;88.18;100563.84;5035443;28;45388;-45
2024/02/07 09:56:45;;;;;;;;;18.33;15.00;;;;;12.59;87.81;100559.56;5034150;28;45626;-44
2024/02/07 09:59:12;;;;;;;;;13.67;13.00;;;;;12.63;87.28;100558.41;5015486;28;48141;-45
2024/02/07 10:01:37;;;;;;;;;17.00;14.33;;;;;12.62;87.92;100558.50;5041477;28;45505;-45
2024/02/07 10:04:03;;;;;;;;;15.33;13.33;;;;;12.59;88.49;100548.91;5026329;28;45340;-44
2024/02/07 10:06:28;;;;;;;;;16.00;14.33;;;;;12.60;88.32;100544.44;5030223;28;45492;-43
2024/02/07 10:08:54;;;;;;;;;13.33;11.00;;;;;12.56;88.62;100555.28;5039216;28;45991;-46
2024/02/07 10:11:21;;;;;;;;;15.00;13.33;;;;;12.54;89.05;100564.31;5027575;28;45661;-48
2024/02/07 10:13:46;;;;;;;;;15.00;13.50;;;;;12.54;89.53;100556.31;5024043;28;45392;-45
2024/02/07 10:16:12;;;;;;;;;17.00;14.50;;;;;12.58;90.76;100557.88;5045317;28;45450;-47
2024/02/07 10:18:37;;;;;;;;;17.33;13.67;;;;;12.61;90.03;100547.00;5043802;28;62665;-49
2024/02/07 10:21:03;;;;;;;;;15.00;12.67;;;;;12.61;90.36;100549.66;5044092;28;73046;-44
2024/02/07 10:23:28;;;;;;;;;15.67;12.00;;;;;12.62;91.73;100550.50;5033477;28;45430;-48
2024/02/07 10:25:55;;;;;;;;;13.67;11.67;;;;;12.66;90.03;100544.91;5043778;28;46064;-47
2024/02/07 10:28:24;;;;;;;;;16.67;12.33;;;;;12.71;89.46;100536.59;5042031;28;46279;-44
2024/02/07 10:31:03;;;;;;;;;12.33;12.33;;;;;12.73;90.06;100545.38;5049714;28;45902;-47
2024/02/07 10:33:36;;;;;;;;;16.33;14.33;;;;;12.78;89.92;100542.41;5050508;28;45497;-46
2024/02/07 10:36:02;;;;;;;;;11.33;11.33;;;;;12.82;89.73;100531.44;5045645;28;45465;-47
2024/02/07 10:38:28;;;;;;;;;13.67;11.67;;;;;12.87;90.16;100524.00;5020160;28;46798;-49
2024/02/07 10:40:54;;;;;;;;;14.00;11.00;;;;;12.94;89.24;100527.13;5044892;28;45466;-45
2024/02/07 10:43:41;;;;;;;;;12.33;10.00;;;;;12.91;88.75;100516.66;5024958;28;45484;-46
2024/02/07 10:46:10;;;;;;;;;15.33;14.33;;;;;12.93;89.92;100509.38;5038822;28;45464;-45
2024/02/07 10:48:35;;;;;;;;;13.33;12.00;;;;;13.00;90.22;100500.03;5053051;28;45643;-48
2024/02/07 10:51:02;;;;;;;;;8.67;8.67;;;;;13.10;88.55;100512.78;5046743;28;45379;-47
2024/02/07 10:53:29;;;;;;;;;12.00;11.00;;;;;13.18;89.45;100511.34;5040006;28;45475;-46
2024/02/07 10:55:56;;;;;;;;;11.33;11.33;;;;;13.29;88.67;100507.94;5048613;28;45530;-49
2024/02/07 10:58:24;;;;;;;;;12.00;11.33;;;;;13.39;88.34;100503.75;5042067;28;45800;-45
2024/02/07 11:00:51;;;;;;;;;10.33;9.33;;;;;13.47;88.26;100497.91;5044117;28;45725;-45
2024/02/07 11:03:17;;;;;;;;;10.33;10.33;;;;;13.50;87.70;100495.00;5046936;28;45486;-48
2024/02/07 11:05:43;;;;;;;;;10.67;8.00;;;;;13.49;86.25;100487.97;5044785;28;45545;-46
2024/02/07 11:08:09;;;;;;;;;12.00;10.67;;;;;13.48;85.96;100491.59;5013965;28;73177;-47
2024/02/07 11:10:35;;;;;;;;;12.33;9.33;;;;;13.48;84.66;100480.91;5021441;28;70327;-46
2024/02/07 11:13:01;;;;;;;;;11.33;8.33;;;;;13.48;85.15;100478.25;5048260;28;45567;-44
2024/02/07 11:15:26;;;;;;;;;8.67;8.67;;;;;13.52;85.06;100469.06;5041590;28;45837;-48
2024/02/07 11:17:52;;;;;;;;;10.67;10.00;;;;;13.58;85.04;100465.09;5039924;28;46219;-45
2024/02/07 11:20:17;;;;;;;;;12.00;10.00;;;;;13.62;84.39;100469.25;5039873;28;45530;-44
2024/02/07 11:22:47;;;;;;;;;9.67;7.33;;;;;13.67;84.10;100474.31;5050272;28;45718;-45
2024/02/07 11:25:16;;;;;;;;;11.67;9.33;;;;;13.71;83.82;100463.31;5037360;28;45433;-46
2024/02/07 11:27:42;;;;;;;;;16.33;10.33;;;;;13.79;84.54;100462.75;5044708;28;46085;-47
2024/02/07 11:30:11;;;;;;;;;12.00;10.67;;;;;13.87;82.28;100467.59;5046748;28;62956;-47
2024/02/07 11:32:40;;;;;;;;;10.00;8.00;;;;;13.84;82.54;100459.78;5030434;28;45561;-44
2024/02/07 11:35:09;;;;;;;;;8.67;6.67;;;;;13.80;81.88;100443.09;5049757;28;45482;-45
2024/02/07 11:37:38;;;;;;;;;8.67;8.67;;;;;13.75;82.14;100444.38;5022971;28;47335;-46
2024/02/07 11:40:08;;;;;;;;;11.00;9.67;;;;;13.69;82.11;100438.50;5034125;28;45716;-46
2024/02/07 11:42:38;;;;;;;;;8.00;8.00;;;;;13.63;82.25;100435.41;5048274;28;45391;-47
2024/02/07 11:45:05;;;;;;;;;8.67;8.67;;;;;13.63;82.24;100422.88;5053194;28;45983;-49
2024/02/07 11:47:33;;;;;;;;;11.00;9.00;;;;;13.61;82.54;100421.28;5044111;28;46111;-47
2024/02/07 11:50:04;;;;;;;;;8.00;8.00;;;;;13.60;81.97;100412.41;5053025;28;45442;-45
2024/02/07 11:52:34;;;;;;;;;9.67;9.00;;;;;13.56;82.17;100432.28;5043316;28;45578;-46
2024/02/07 11:55:01;;;;;;;;;8.33;8.33;;;;;13.53;82.50;100416.47;5048491;28;45380;-45
2024/02/07 11:57:26;;;;;;;;;6.00;6.00;;;;;13.49;82.58;100426.53;5038043;28;46197;-47
2024/02/07 11:59:52;;;;;;;;;9.00;7.00;;;;;13.49;82.53;100413.16;5009931;28;73140;-45
2024/02/07 12:02:20;;;;;;;;;10.00;7.00;;;;;13.51;83.10;100413.06;5048920;28;65934;-45
2024/02/07 12:04:45;;;;;;;;;7.00;5.67;;;;;13.54;82.59;100394.97;5049076;28;45782;-48
2024/02/07 12:07:12;;;;;;;;;7.67;6.00;;;;;13.54;82.78;100396.81;5039793;28;46083;-45
2024/02/07 12:09:38;;;;;;;;;6.00;6.00;;;;;13.51;82.56;100405.88;5015034;28;45931;-47
2024/02/07 12:12:03;;;;;;;;;7.00;6.33;;;;;13.51;82.92;100405.03;5040634;28;68237;-45
2024/02/07 12:14:29;;;;;;;;;8.33;7.00;;;;;13.46;83.22;100405.34;5029367;28;45872;-48